sensor_id;sensor_type;location;lat;lon;timestamp;pressure;altitude;pressure_sealevel;temperature;humidity
15932;BME280;8065;49.520;11.284;2022-10-19T00:00:15;98526.06;;;15.49;100.00
15932;BME280;8065;49.520;11.284;2022-10-19T00:02:42;98524.41;;;15.65;100.00
15932;BME280;8065;49.520;11.284;2022-10-19T00:05:08;98527.66;;;15.70;100.00
15932;BME280;8065;49.520;11.284;2022-10-19T00:07:36;98529.66;;;15.82;100.00
15932;BME280;8065;49.520;11.284;2022-10-19T00:10:03;98526.25;;;15.73;100.00
15932;BME280;8065;49.520;11.284;2022-10-19T00:12:30;98528.00;;;15.69;100.00
15932;BME280;8065;49.520;11.284;2022-10-19T00:14:56;98530.69;;;15.69;100.00
15932;BME280;8065;49.520;11.284;2022-10-19T00:17:23;98528.00;;;15.69;100.00
15932;BME280;8065;49.520;11.284;2022-10-19T00:19:49;98524.78;;;15.55;100.00
15932;BME280;8065;49.520;11.284;2022-10-19T00:22:16;98520.97;;;15.56;100.00
15932;BME280;8065;49.520;11.284;2022-10-19T00:24:44;98516.56;;;15.60;100.00
15932;BME280;8065;49.520;11.284;2022-10-19T00:27:10;98522.81;;;15.64;100.00
15932;BME280;8065;49.520;11.284;2022-10-19T00:29:37;98519.91;;;15.57;100.00
15932;BME280;8065;49.520;11.284;2022-10-19T00:32:04;98518.56;;;15.63;100.00
15932;BME280;8065;49.520;11.284;2022-10-19T00:34:30;98522.19;;;15.67;100.00
15932;BME280;8065;49.520;11.284;2022-10-19T00:36:57;98520.38;;;15.21;100.00
15932;BME280;8065;49.520;11.284;2022-10-19T00:39:23;98521.72;;;15.35;100.00
15932;BME280;8065;49.520;11.284;2022-10-19T00:41:51;98522.66;;;15.39;100.00
15932;BME280;8065;49.520;11.284;2022-10-19T00:47:22;98522.59;;;15.19;100.00
15932;BME280;8065;49.520;11.284;2022-10-19T00:49:50;98518.00;;;15.19;100.00
15932;BME280;8065;49.520;11.284;2022-10-19T00:52:20;98531.00;;;15.00;100.00
15932;BME280;8065;49.520;11.284;2022-10-19T00:54:49;98531.00;;;15.00;100.00
15932;BME280;8065;49.520;11.284;2022-10-19T00:57:19;98534.03;;;14.90;100.00
15932;BME280;8065;49.520;11.284;2022-10-19T00:59:46;98531.59;;;15.05;100.00
15932;BME280;8065;49.520;11.284;2022-10-19T01:02:13;98526.13;;;15.02;100.00
15932;BME280;8065;49.520;11.284;2022-10-19T01:04:43;98518.94;;;15.23;100.00
15932;BME280;8065;49.520;11.284;2022-10-19T01:07:11;98517.06;;;15.53;100.00
15932;BME280;8065;49.520;11.284;2022-10-19T01:09:38;98518.13;;;15.61;100.00
15932;BME280;8065;49.520;11.284;2022-10-19T01:12:10;98522.69;;;15.60;100.00
15932;BME280;8065;49.520;11.284;2022-10-19T01:14:50;98520.38;;;15.50;100.00
15932;BME280;8065;49.520;11.284;2022-10-19T01:17:27;98520.72;;;15.49;100.00
15932;BME280;8065;49.520;11.284;2022-10-19T01:23:32;98520.84;;;15.52;100.00
15932;BME280;8065;49.520;11.284;2022-10-19T01:26:13;98516.63;;;15.43;100.00
15932;BME280;8065;49.520;11.284;2022-10-19T01:28:55;98511.97;;;15.31;100.00
15932;BME280;8065;49.520;11.284;2022-10-19T01:31:30;98520.44;;;15.41;100.00
15932;BME280;8065;49.520;11.284;2022-10-19T01:34:04;98516.59;;;15.22;100.00
15932;BME280;8065;49.520;11.284;2022-10-19T01:36:37;98518.56;;;15.33;100.00
15932;BME280;8065;49.520;11.284;2022-10-19T01:39:09;98513.13;;;15.51;100.00
15932;BME280;8065;49.520;11.284;2022-10-19T01:41:44;98517.03;;;15.24;100.00
15932;BME280;8065;49.520;11.284;2022-10-19T01:44:15;98510.81;;;15.40;100.00
15932;BME280;8065;49.520;11.284;2022-10-19T01:46:48;98516.38;;;15.35;100.00
15932;BME280;8065;49.520;11.284;2022-10-19T01:49:21;98504.81;;;15.14;100.00
15932;BME280;8065;49.520;11.284;2022-10-19T01:51:53;98502.59;;;15.16;100.00
15932;BME280;8065;49.520;11.284;2022-10-19T01:54:22;98498.81;;;15.17;100.00
15932;BME280;8065;49.520;11.284;2022-10-19T01:56:51;98490.41;;;15.27;100.00
15932;BME280;8065;49.520;11.284;2022-10-19T01:59:20;98491.66;;;15.30;100.00
15932;BME280;8065;49.520;11.284;2022-10-19T02:01:50;98498.94;;;15.21;100.00
15932;BME280;8065;49.520;11.284;2022-10-19T02:04:20;98490.88;;;15.29;100.00
15932;BME280;8065;49.520;11.284;2022-10-19T02:06:48;98494.94;;;15.35;100.00
15932;BME280;8065;49.520;11.284;2022-10-19T02:09:15;98486.84;;;15.44;100.00
15932;BME280;8065;49.520;11.284;2022-10-19T02:11:45;98492.16;;;15.23;100.00
15932;BME280;8065;49.520;11.284;2022-10-19T02:14:15;98482.47;;;15.10;100.00
15932;BME280;8065;49.520;11.284;2022-10-19T02:16:47;98477.25;;;15.14;100.00
15932;BME280;8065;49.520;11.284;2022-10-19T02:19:17;98477.66;;;15.24;100.00
15932;BME280;8065;49.520;11.284;2022-10-19T02:21:46;98466.69;;;15.17;100.00
15932;BME280;8065;49.520;11.284;2022-10-19T02:24:12;98466.75;;;15.00;100.00
15932;BME280;8065;49.520;11.284;2022-10-19T02:26:39;98466.41;;;15.10;100.00
15932;BME280;8065;49.520;11.284;2022-10-19T02:29:06;98469.81;;;15.19;100.00
15932;BME280;8065;49.520;11.284;2022-10-19T02:31:33;98464.19;;;15.12;100.00
15932;BME280;8065;49.520;11.284;2022-10-19T02:33:59;98464.97;;;15.13;100.00
15932;BME280;8065;49.520;11.284;2022-10-19T02:36:28;98462.97;;;15.01;100.00
15932;BME280;8065;49.520;11.284;2022-10-19T02:38:55;98458.81;;;15.12;100.00
15932;BME280;8065;49.520;11.284;2022-10-19T02:41:23;98459.00;;;15.07;100.00
15932;BME280;8065;49.520;11.284;2022-10-19T02:43:56;98456.69;;;14.97;100.00
15932;BME280;8065;49.520;11.284;2022-10-19T02:46:26;98460.06;;;15.15;100.00
15932;BME280;8065;49.520;11.284;2022-10-19T02:48:54;98463.69;;;15.19;100.00
15932;BME280;8065;49.520;11.284;2022-10-19T02:51:28;98461.75;;;14.90;100.00
15932;BME280;8065;49.520;11.284;2022-10-19T02:53:54;98455.81;;;14.84;100.00
15932;BME280;8065;49.520;11.284;2022-10-19T02:56:21;98459.97;;;15.02;100.00
15932;BME280;8065;49.520;11.284;2022-10-19T02:58:48;98457.41;;;14.76;100.00
15932;BME280;8065;49.520;11.284;2022-10-19T03:01:14;98464.38;;;14.69;100.00
15932;BME280;8065;49.520;11.284;2022-10-19T03:03:40;98468.19;;;14.59;100.00
15932;BME280;8065;49.520;11.284;2022-10-19T03:06:07;98456.50;;;14.72;100.00
15932;BME280;8065;49.520;11.284;2022-10-19T03:08:35;98456.03;;;14.70;100.00
15932;BME280;8065;49.520;11.284;2022-10-19T03:11:01;98458.72;;;14.70;100.00
15932;BME280;8065;49.520;11.284;2022-10-19T03:13:28;98463.16;;;14.96;100.00
15932;BME280;8065;49.520;11.284;2022-10-19T03:15:54;98458.91;;;14.95;100.00
15932;BME280;8065;49.520;11.284;2022-10-19T03:18:21;98466.34;;;14.81;100.00
15932;BME280;8065;49.520;11.284;2022-10-19T03:20:47;98454.94;;;14.71;100.00
15932;BME280;8065;49.520;11.284;2022-10-19T03:23:14;98451.41;;;14.80;100.00
15932;BME280;8065;49.520;11.284;2022-10-19T03:25:41;98446.94;;;14.92;100.00
15932;BME280;8065;49.520;11.284;2022-10-19T03:28:08;98450.78;;;14.83;100.00
15932;BME280;8065;49.520;11.284;2022-10-19T03:30:34;98453.91;;;14.85;100.00
15932;BME280;8065;49.520;11.284;2022-10-19T03:33:00;98456.25;;;14.86;100.00
15932;BME280;8065;49.520;11.284;2022-10-19T03:35:27;98460.97;;;14.51;100.00
15932;BME280;8065;49.520;11.284;2022-10-19T03:37:53;98464.13;;;14.19;100.00
15932;BME280;8065;49.520;11.284;2022-10-19T03:40:20;98451.88;;;14.18;100.00
15932;BME280;8065;49.520;11.284;2022-10-19T03:42:48;98461.25;;;14.58;100.00
15932;BME280;8065;49.520;11.284;2022-10-19T03:45:14;98455.44;;;14.65;100.00
15932;BME280;8065;49.520;11.284;2022-10-19T03:47:41;98458.72;;;14.70;100.00
15932;BME280;8065;49.520;11.284;2022-10-19T03:50:07;98455.91;;;14.58;100.00
15932;BME280;8065;49.520;11.284;2022-10-19T03:52:35;98447.44;;;14.56;100.00
15932;BME280;8065;49.520;11.284;2022-10-19T03:55:02;98456.22;;;14.65;100.00
15932;BME280;8065;49.520;11.284;2022-10-19T03:57:28;98456.56;;;14.55;100.00
15932;BME280;8065;49.520;11.284;2022-10-19T03:59:56;98462.38;;;14.57;100.00
15932;BME280;8065;49.520;11.284;2022-10-19T04:02:22;98461.44;;;14.53;100.00
15932;BME280;8065;49.520;11.284;2022-10-19T04:04:49;98466.94;;;14.57;100.00
15932;BME280;8065;49.520;11.284;2022-10-19T04:07:15;98464.84;;;14.71;100.00
15932;BME280;8065;49.520;11.284;2022-10-19T04:09:41;98466.53;;;14.75;100.00
15932;BME280;8065;49.520;11.284;2022-10-19T04:12:08;98463.81;;;14.84;100.00
15932;BME280;8065;49.520;11.284;2022-10-19T04:14:34;98467.22;;;14.72;100.00
15932;BME280;8065;49.520;11.284;2022-10-19T04:17:03;98464.84;;;14.71;100.00
15932;BME280;8065;49.520;11.284;2022-10-19T04:19:30;98468.09;;;14.76;100.00
15932;BME280;8065;49.520;11.284;2022-10-19T04:21:57;98465.50;;;14.59;100.00
15932;BME280;8065;49.520;11.284;2022-10-19T04:24:23;98465.66;;;14.63;100.00
15932;BME280;8065;49.520;11.284;2022-10-19T04:26:51;98456.84;;;14.62;100.00
15932;BME280;8065;49.520;11.284;2022-10-19T04:29:20;98470.41;;;14.57;100.00
15932;BME280;8065;49.520;11.284;2022-10-19T04:31:47;98464.84;;;14.71;100.00
15932;BME280;8065;49.520;11.284;2022-10-19T04:34:16;98468.19;;;14.59;100.00
15932;BME280;8065;49.520;11.284;2022-10-19T04:36:43;98458.97;;;14.77;100.00
15932;BME280;8065;49.520;11.284;2022-10-19T04:39:10;98474.19;;;14.56;100.00
15932;BME280;8065;49.520;11.284;2022-10-19T04:41:37;98472.13;;;14.62;100.00
15932;BME280;8065;49.520;11.284;2022-10-19T04:44:04;98474.19;;;14.56;100.00
15932;BME280;8065;49.520;11.284;2022-10-19T04:46:31;98465.69;;;14.37;100.00
15932;BME280;8065;49.520;11.284;2022-10-19T04:48:59;98461.28;;;14.41;100.00
15932;BME280;8065;49.520;11.284;2022-10-19T04:51:27;98448.28;;;14.14;100.00
15932;BME280;8065;49.520;11.284;2022-10-19T04:53:53;98446.53;;;14.26;100.00
15932;BME280;8065;49.520;11.284;2022-10-19T04:56:24;98445.09;;;14.37;100.00
15932;BME280;8065;49.520;11.284;2022-10-19T04:58:53;98449.97;;;14.27;100.00
15932;BME280;8065;49.520;11.284;2022-10-19T05:01:21;98452.63;;;14.35;100.00
15932;BME280;8065;49.520;11.284;2022-10-19T05:03:51;98449.19;;;14.35;100.00
15932;BME280;8065;49.520;11.284;2022-10-19T05:06:18;98448.41;;;14.34;100.00
15932;BME280;8065;49.520;11.284;2022-10-19T05:08:46;98444.31;;;14.28;100.00
15932;BME280;8065;49.520;11.284;2022-10-19T05:11:13;98442.41;;;14.46;100.00
15932;BME280;8065;49.520;11.284;2022-10-19T05:13:40;98448.22;;;14.48;100.00
15932;BME280;8065;49.520;11.284;2022-10-19T05:16:10;98446.03;;;14.50;100.00
15932;BME280;8065;49.520;11.284;2022-10-19T05:18:37;98438.16;;;14.54;100.00
15932;BME280;8065;49.520;11.284;2022-10-19T05:21:06;98441.94;;;14.44;100.00
15932;BME280;8065;49.520;11.284;2022-10-19T05:23:33;98438.94;;;14.37;100.00
15932;BME280;8065;49.520;11.284;2022-10-19T05:26:03;98431.09;;;14.32;100.00
15932;BME280;8065;49.520;11.284;2022-10-19T05:28:30;98446.50;;;14.35;100.00
15932;BME280;8065;49.520;11.284;2022-10-19T05:31:04;98433.94;;;14.44;100.00
15932;BME280;8065;49.520;11.284;2022-10-19T05:33:30;98428.41;;;14.32;100.00
15932;BME280;8065;49.520;11.284;2022-10-19T05:35:57;98427.31;;;14.33;100.00
15932;BME280;8065;49.520;11.284;2022-10-19T05:38:23;98430.28;;;14.40;100.00
15932;BME280;8065;49.520;11.284;2022-10-19T05:40:50;98432.69;;;14.24;100.00
15932;BME280;8065;49.520;11.284;2022-10-19T05:43:18;98439.63;;;13.99;100.00
15932;BME280;8065;49.520;11.284;2022-10-19T05:45:44;98436.94;;;14.17;100.00
15932;BME280;8065;49.520;11.284;2022-10-19T05:48:10;98445.97;;;13.86;100.00
15932;BME280;8065;49.520;11.284;2022-10-19T05:50:37;98452.41;;;13.85;100.00
15932;BME280;8065;49.520;11.284;2022-10-19T05:53:03;98448.13;;;14.01;100.00
15932;BME280;8065;49.520;11.284;2022-10-19T05:55:33;98450.78;;;14.01;100.00
15932;BME280;8065;49.520;11.284;2022-10-19T05:57:59;98440.63;;;13.86;100.00
15932;BME280;8065;49.520;11.284;2022-10-19T06:00:27;98444.69;;;13.75;100.00
15932;BME280;8065;49.520;11.284;2022-10-19T06:02:54;98444.06;;;13.78;100.00
15932;BME280;8065;49.520;11.284;2022-10-19T06:05:20;98447.19;;;13.63;100.00
15932;BME280;8065;49.520;11.284;2022-10-19T06:07:46;98456.00;;;13.72;100.00
15932;BME280;8065;49.520;11.284;2022-10-19T06:10:13;98456.00;;;13.72;100.00
15932;BME280;8065;49.520;11.284;2022-10-19T06:12:39;98467.00;;;13.79;100.00
15932;BME280;8065;49.520;11.284;2022-10-19T06:15:07;98471.88;;;13.86;100.00
15932;BME280;8065;49.520;11.284;2022-10-19T06:17:35;98465.25;;;13.92;100.00
15932;BME280;8065;49.520;11.284;2022-10-19T06:20:01;98465.25;;;14.00;100.00
15932;BME280;8065;49.520;11.284;2022-10-19T06:22:28;98461.91;;;14.38;100.00
15932;BME280;8065;49.520;11.284;2022-10-19T06:24:54;98466.50;;;14.46;100.00
15932;BME280;8065;49.520;11.284;2022-10-19T06:27:21;98470.09;;;14.50;100.00
15932;BME280;8065;49.520;11.284;2022-10-19T06:29:48;98467.13;;;14.43;100.00
15932;BME280;8065;49.520;11.284;2022-10-19T06:32:14;98475.75;;;14.40;100.00
15932;BME280;8065;49.520;11.284;2022-10-19T06:34:42;98475.16;;;14.43;100.00
15932;BME280;8065;49.520;11.284;2022-10-19T06:37:08;98485.22;;;14.46;100.00
15932;BME280;8065;49.520;11.284;2022-10-19T06:39:35;98479.06;;;14.46;100.00
15932;BME280;8065;49.520;11.284;2022-10-19T06:42:01;98486.78;;;14.47;100.00
15932;BME280;8065;49.520;11.284;2022-10-19T06:44:28;98489.94;;;13.97;100.00
15932;BME280;8065;49.520;11.284;2022-10-19T06:46:54;98486.16;;;13.98;100.00
15932;BME280;8065;49.520;11.284;2022-10-19T06:49:20;98485.69;;;13.96;100.00
15932;BME280;8065;49.520;11.284;2022-10-19T06:51:48;98484.13;;;14.04;100.00
15932;BME280;8065;49.520;11.284;2022-10-19T06:54:15;98489.94;;;13.97;100.00
15932;BME280;8065;49.520;11.284;2022-10-19T06:56:41;98487.13;;;13.85;100.00
15932;BME280;8065;49.520;11.284;2022-10-19T06:59:08;98486.34;;;13.67;100.00
15932;BME280;8065;49.520;11.284;2022-10-19T07:01:36;98487.44;;;13.75;100.00
15932;BME280;8065;49.520;11.284;2022-10-19T07:04:03;98482.06;;;13.92;100.00
15932;BME280;8065;49.520;11.284;2022-10-19T07:06:29;98484.91;;;13.87;100.00
15932;BME280;8065;49.520;11.284;2022-10-19T07:08:57;98491.97;;;14.00;100.00
15932;BME280;8065;49.520;11.284;2022-10-19T07:11:24;98485.06;;;14.25;100.00
15932;BME280;8065;49.520;11.284;2022-10-19T07:13:51;98493.09;;;13.99;100.00
15932;BME280;8065;49.520;11.284;2022-10-19T07:16:18;98492.59;;;13.97;100.00
15932;BME280;8065;49.520;11.284;2022-10-19T07:18:44;98500.31;;;13.90;100.00
15932;BME280;8065;49.520;11.284;2022-10-19T07:21:12;98491.97;;;14.00;100.00
15932;BME280;8065;49.520;11.284;2022-10-19T07:23:41;98491.81;;;13.88;100.00
15932;BME280;8065;49.520;11.284;2022-10-19T07:26:11;98502.38;;;13.85;100.00
15932;BME280;8065;49.520;11.284;2022-10-19T07:28:38;98501.91;;;13.74;100.00
15932;BME280;8065;49.520;11.284;2022-10-19T07:31:06;98501.91;;;13.74;100.00
15932;BME280;8065;49.520;11.284;2022-10-19T07:33:33;98494.97;;;13.90;100.00
15932;BME280;8065;49.520;11.284;2022-10-19T07:36:00;98497.63;;;14.07;100.00
15932;BME280;8065;49.520;11.284;2022-10-19T07:38:29;98505.97;;;14.15;100.00
15932;BME280;8065;49.520;11.284;2022-10-19T07:41:00;98494.81;;;14.47;100.00
15932;BME280;8065;49.520;11.284;2022-10-19T07:43:28;98495.91;;;14.29;100.00
15932;BME280;8065;49.520;11.284;2022-10-19T07:45:58;98500.63;;;14.32;100.00
15932;BME280;8065;49.520;11.284;2022-10-19T07:48:25;98505.66;;;14.25;100.00
15932;BME280;8065;49.520;11.284;2022-10-19T07:50:51;98505.03;;;14.10;100.00
15932;BME280;8065;49.520;11.284;2022-10-19T07:53:18;98498.59;;;13.94;100.00
15932;BME280;8065;49.520;11.284;2022-10-19T07:55:44;98503.78;;;13.99;100.00
15932;BME280;8065;49.520;11.284;2022-10-19T07:58:11;98511.97;;;13.77;100.00
15932;BME280;8065;49.520;11.284;2022-10-19T08:00:39;98507.84;;;13.88;100.00
15932;BME280;8065;49.520;11.284;2022-10-19T08:03:05;98512.56;;;14.08;100.00
15932;BME280;8065;49.520;11.284;2022-10-19T08:05:32;98509.13;;;14.17;100.00
15932;BME280;8065;49.520;11.284;2022-10-19T08:07:59;98515.09;;;14.14;100.00
15932;BME280;8065;49.520;11.284;2022-10-19T08:10:25;98517.75;;;14.22;100.00
15932;BME280;8065;49.520;11.284;2022-10-19T08:12:52;98531.28;;;14.34;100.00
15932;BME280;8065;49.520;11.284;2022-10-19T08:15:18;98539.47;;;14.38;100.00
15932;BME280;8065;49.520;11.284;2022-10-19T08:17:46;98531.47;;;14.47;100.00
15932;BME280;8065;49.520;11.284;2022-10-19T08:20:12;98527.03;;;14.59;100.00
15932;BME280;8065;49.520;11.284;2022-10-19T08:22:39;98523.41;;;14.64;100.00
15932;BME280;8065;49.520;11.284;2022-10-19T08:25:06;98529.47;;;14.82;100.00
15932;BME280;8065;49.520;11.284;2022-10-19T08:27:33;98532.63;;;14.84;100.00
15932;BME280;8065;49.520;11.284;2022-10-19T08:29:59;98528.19;;;14.88;100.00
15932;BME280;8065;49.520;11.284;2022-10-19T08:32:26;98525.13;;;14.68;100.00
15932;BME280;8065;49.520;11.284;2022-10-19T08:34:53;98523.19;;;14.77;100.00
15932;BME280;8065;49.520;11.284;2022-10-19T08:37:20;98527.91;;;14.81;100.00
15932;BME280;8065;49.520;11.284;2022-10-19T08:39:46;98523.19;;;14.77;100.00
15932;BME280;8065;49.520;11.284;2022-10-19T08:42:15;98522.72;;;14.75;100.00
15932;BME280;8065;49.520;11.284;2022-10-19T08:44:55;98520.66;;;14.81;100.00
15932;BME280;8065;49.520;11.284;2022-10-19T08:47:36;98523.16;;;14.95;100.00
15932;BME280;8065;49.520;11.284;2022-10-19T08:50:16;98519.34;;;14.96;100.00
15932;BME280;8065;49.520;11.284;2022-10-19T08:52:45;98517.44;;;15.05;100.00
15932;BME280;8065;49.520;11.284;2022-10-19T08:55:14;98508.16;;;15.02;100.00
15932;BME280;8065;49.520;11.284;2022-10-19T08:57:45;98513.22;;;14.95;100.00
15932;BME280;8065;49.520;11.284;2022-10-19T09:00:19;98514.59;;;15.10;100.00
15932;BME280;8065;49.520;11.284;2022-10-19T09:02:54;98512.66;;;15.19;100.00
15932;BME280;8065;49.520;11.284;2022-10-19T09:05:36;98517.78;;;14.95;100.00
15932;BME280;8065;49.520;11.284;2022-10-19T09:08:07;98518.09;;;15.02;100.00
15932;BME280;8065;49.520;11.284;2022-10-19T09:10:36;98523.78;;;15.30;100.00
15932;BME280;8065;49.520;11.284;2022-10-19T09:13:08;98516.59;;;15.22;100.00
15932;BME280;8065;49.520;11.284;2022-10-19T09:15:43;98521.25;;;15.33;100.00
15932;BME280;8065;49.520;11.284;2022-10-19T09:18:13;98525.53;;;15.26;100.00
15932;BME280;8065;49.520;11.284;2022-10-19T09:20:45;98530.22;;;15.37;100.00
15932;BME280;8065;49.520;11.284;2022-10-19T09:23:19;98520.84;;;15.23;100.00
15932;BME280;8065;49.520;11.284;2022-10-19T09:25:47;98522.81;;;15.34;100.00
15932;BME280;8065;49.520;11.284;2022-10-19T09:28:25;98528.94;;;15.44;100.00
15932;BME280;8065;49.520;11.284;2022-10-19T09:30:57;98524.78;;;15.55;100.00
15932;BME280;8065;49.520;11.284;2022-10-19T09:33:27;98523.63;;;15.64;100.00
15932;BME280;8065;49.520;11.284;2022-10-19T09:35:58;98522.69;;;15.60;100.00
15932;BME280;8065;49.520;11.284;2022-10-19T09:38:26;98522.91;;;15.76;99.75
15932;BME280;8065;49.520;11.284;2022-10-19T09:40:55;98529.50;;;15.58;99.02
15932;BME280;8065;49.520;11.284;2022-10-19T09:43:23;98527.81;;;15.74;98.78
15932;BME280;8065;49.520;11.284;2022-10-19T09:45:52;98533.31;;;15.57;96.95
15932;BME280;8065;49.520;11.284;2022-10-19T09:48:26;98540.56;;;15.77;97.21
15932;BME280;8065;49.520;11.284;2022-10-19T09:50:55;98545.00;;;15.73;98.32
15932;BME280;8065;49.520;11.284;2022-10-19T09:53:25;98549.53;;;15.81;97.22
15932;BME280;8065;49.520;11.284;2022-10-19T09:55:58;98546.00;;;15.89;97.09
15932;BME280;8065;49.520;11.284;2022-10-19T09:58:26;98542.78;;;15.75;95.63
15932;BME280;8065;49.520;11.284;2022-10-19T10:00:54;98537.88;;;15.77;96.36
15932;BME280;8065;49.520;11.284;2022-10-19T10:03:25;98534.56;;;15.80;97.26
15932;BME280;8065;49.520;11.284;2022-10-19T10:05:53;98541.84;;;15.41;97.50
15932;BME280;8065;49.520;11.284;2022-10-19T10:08:22;98539.56;;;15.61;97.39
15932;BME280;8065;49.520;11.284;2022-10-19T10:10:58;98540.75;;;15.72;97.11
15932;BME280;8065;49.520;11.284;2022-10-19T10:13:35;98538.81;;;15.81;96.79
15932;BME280;8065;49.520;11.284;2022-10-19T10:16:04;98536.44;;;15.80;97.85
15932;BME280;8065;49.520;11.284;2022-10-19T10:18:35;98536.06;;;16.11;96.52
15932;BME280;8065;49.520;11.284;2022-10-19T10:21:10;98533.06;;;16.12;95.40
15932;BME280;8065;49.520;11.284;2022-10-19T10:23:38;98533.56;;;15.85;95.61
15932;BME280;8065;49.520;11.284;2022-10-19T10:26:16;98529.13;;;16.10;96.35
15932;BME280;8065;49.520;11.284;2022-10-19T10:28:48;98529.41;;;16.17;96.06
15932;BME280;8065;49.520;11.284;2022-10-19T10:31:18;98517.63;;;15.88;96.32
15932;BME280;8065;49.520;11.284;2022-10-19T10:33:52;98511.53;;;16.21;95.12
15932;BME280;8065;49.520;11.284;2022-10-19T10:36:22;98512.91;;;15.85;95.52
15932;BME280;8065;49.520;11.284;2022-10-19T10:38:52;98516.84;;;15.88;95.17
15932;BME280;8065;49.520;11.284;2022-10-19T10:41:21;98509.97;;;15.78;95.02
15932;BME280;8065;49.520;11.284;2022-10-19T10:43:52;98507.28;;;15.78;94.35
15932;BME280;8065;49.520;11.284;2022-10-19T10:46:23;98504.53;;;15.66;94.49
15932;BME280;8065;49.520;11.284;2022-10-19T10:48:53;98505.34;;;15.87;93.99
15932;BME280;8065;49.520;11.284;2022-10-19T10:51:22;98493.94;;;16.32;92.30
15932;BME280;8065;49.520;11.284;2022-10-19T10:54:07;98497.34;;;17.11;90.36
15932;BME280;8065;49.520;11.284;2022-10-19T10:56:36;98490.56;;;17.78;87.46
15932;BME280;8065;49.520;11.284;2022-10-19T10:59:11;98491.13;;;18.39;85.78
15932;BME280;8065;49.520;11.284;2022-10-19T11:01:41;98477.16;;;18.93;84.84
15932;BME280;8065;49.520;11.284;2022-10-19T11:04:13;98479.25;;;18.99;81.19
15932;BME280;8065;49.520;11.284;2022-10-19T11:06:46;98476.19;;;19.01;83.06
15932;BME280;8065;49.520;11.284;2022-10-19T11:09:23;98471.25;;;18.44;82.26
15932;BME280;8065;49.520;11.284;2022-10-19T11:11:52;98458.94;;;18.58;82.45
15932;BME280;8065;49.520;11.284;2022-10-19T11:14:27;98468.56;;;19.03;82.32
15932;BME280;8065;49.520;11.284;2022-10-19T11:16:57;98465.38;;;19.32;81.35
15932;BME280;8065;49.520;11.284;2022-10-19T11:19:29;98453.97;;;19.23;81.89
15932;BME280;8065;49.520;11.284;2022-10-19T11:22:05;98450.56;;;19.77;79.76
15932;BME280;8065;49.520;11.284;2022-10-19T11:24:43;98442.84;;;19.76;79.35
15932;BME280;8065;49.520;11.284;2022-10-19T11:27:21;98434.66;;;19.53;78.25
15932;BME280;8065;49.520;11.284;2022-10-19T11:30:02;98431.31;;;19.09;78.12
15932;BME280;8065;49.520;11.284;2022-10-19T11:32:35;98428.06;;;18.99;78.85
15932;BME280;8065;49.520;11.284;2022-10-19T11:35:16;98427.59;;;19.48;78.52
15932;BME280;8065;49.520;11.284;2022-10-19T11:37:52;98426.28;;;19.58;79.35
15932;BME280;8065;49.520;11.284;2022-10-19T11:40:24;98429.19;;;20.07;77.14
15932;BME280;8065;49.520;11.284;2022-10-19T11:43:00;98427.28;;;19.69;79.18
15932;BME280;8065;49.520;11.284;2022-10-19T11:45:37;98421.88;;;19.34;79.48
15932;BME280;8065;49.520;11.284;2022-10-19T11:48:30;98433.13;;;19.20;80.71
15932;BME280;8065;49.520;11.284;2022-10-19T11:51:05;98425.75;;;19.17;80.41
15932;BME280;8065;49.520;11.284;2022-10-19T11:53:42;98417.63;;;18.82;81.01
15932;BME280;8065;49.520;11.284;2022-10-19T11:56:17;98406.59;;;19.03;80.72
15932;BME280;8065;49.520;11.284;2022-10-19T11:58:54;98413.09;;;19.02;79.86
15932;BME280;8065;49.520;11.284;2022-10-19T12:01:32;98413.38;;;18.81;81.38
15932;BME280;8065;49.520;11.284;2022-10-19T12:04:17;98402.66;;;19.36;77.03
15932;BME280;8065;49.520;11.284;2022-10-19T12:06:54;98402.97;;;19.50;75.78
15932;BME280;8065;49.520;11.284;2022-10-19T12:09:32;98399.03;;;19.82;76.17
15932;BME280;8065;49.520;11.284;2022-10-19T12:12:14;98403.53;;;20.17;74.59
15932;BME280;8065;49.520;11.284;2022-10-19T12:14:50;98390.00;;;20.36;73.70
15932;BME280;8065;49.520;11.284;2022-10-19T12:17:24;98389.34;;;20.43;74.20
15932;BME280;8065;49.520;11.284;2022-10-19T12:19:54;98382.97;;;20.77;74.71
15932;BME280;8065;49.520;11.284;2022-10-19T12:22:24;98381.44;;;20.53;73.60
15932;BME280;8065;49.520;11.284;2022-10-19T12:24:52;98387.38;;;20.89;73.27
15932;BME280;8065;49.520;11.284;2022-10-19T12:27:25;98384.53;;;20.33;74.59
15932;BME280;8065;49.520;11.284;2022-10-19T12:29:57;98376.75;;;19.85;74.80
15932;BME280;8065;49.520;11.284;2022-10-19T12:32:27;98371.94;;;19.56;76.11
15932;BME280;8065;49.520;11.284;2022-10-19T12:35:03;98371.41;;;19.50;76.57
15932;BME280;8065;49.520;11.284;2022-10-19T12:37:37;98372.44;;;19.26;73.95
15932;BME280;8065;49.520;11.284;2022-10-19T12:40:15;98373.84;;;19.20;74.99
15932;BME280;8065;49.520;11.284;2022-10-19T12:42:48;98366.34;;;19.49;74.69
15932;BME280;8065;49.520;11.284;2022-10-19T12:45:23;98367.34;;;19.41;75.67
15932;BME280;8065;49.520;11.284;2022-10-19T12:48:17;98362.09;;;19.28;75.34
15932;BME280;8065;49.520;11.284;2022-10-19T12:51:12;98361.94;;;19.21;76.20
15932;BME280;8065;49.520;11.284;2022-10-19T12:53:41;98358.13;;;19.42;75.41
15932;BME280;8065;49.520;11.284;2022-10-19T12:56:12;98344.75;;;19.64;74.36
15932;BME280;8065;49.520;11.284;2022-10-19T12:58:46;98344.59;;;20.00;74.43
15932;BME280;8065;49.520;11.284;2022-10-19T13:01:17;98352.06;;;20.06;73.58
15932;BME280;8065;49.520;11.284;2022-10-19T13:03:45;98344.66;;;20.45;72.09
15932;BME280;8065;49.520;11.284;2022-10-19T13:06:15;98345.56;;;20.53;71.85
15932;BME280;8065;49.520;11.284;2022-10-19T13:08:46;98340.38;;;20.67;70.07
15932;BME280;8065;49.520;11.284;2022-10-19T13:11:14;98340.38;;;20.67;69.95